AirNav   TITAN Aviation Fuels
 
 1238 users online  

W66 Port Angeles Seaplane Base
Port Angeles, Washington, USA

GOING TO PORT ANGELES?


FAA INFORMATION EFFECTIVE 14 JULY 2022

Location

FAA Identifier: W66
Lat/Long: 48-07-00.1000N 123-24-47.3000W
48-07.001667N 123-24.788333W
48.1166944,-123.4131389
(estimated)
Elevation: 0 ft. / 0 m (estimated)
From city: 1 mile NE of PORT ANGELES, WA
Time zone: UTC -7 (UTC -8 during Standard Time)
Zip code: 98363

Seaplane Base Operations

Seaplane Base use: Open to the public
Activation date: 07/2019
Control tower: no
ARTCC: SEATTLE CENTER
FSS: SEATTLE FLIGHT SERVICE STATION
NOTAMs facility: SEA (NOTAM-D service not available)
Attendance: 
Segmented circle: no

Seaplane Base Communications

CTAF: 122.975
WX AWOS-3P at NOW (1.5 nm N): 118.325 (360-457-7529)
WX ASOS at CLM (3 nm W): 135.175 (360-457-1070)

Nearby radio navigation aids

VOR radial/distance  VOR name  Freq  Var
CVVr235/28.6PENN COVE VOR/DME117.2019E
YYJr159/36.7VICTORIA VOR/DME113.7017E

 
NDB name  Hdg/Dist  Freq  Var  ID
EDIZ HOOK179/1.433817ENOW -. --- .--
ELWHA085/10.551516ECL -.-. .-..
FRIDAY HARBOR196/28.428417EFHR ..-. .... .-.

Seaplane Base Services

Runway Information

Runway 11W/29W

Dimensions: 3200 x 999 ft. / 975 x 304 m
Surface: water
RUNWAY 11W  RUNWAY 29W
Traffic pattern: leftleft

Seaplane Base Ownership and Management from official FAA records

Ownership: Publicly-owned
Owner: PORT OF PORT ANGELES
338 W. FIRST ST. POB 1350
PORT ANGELES, WA 98362
Phone 360 457 8527
Manager: DANIEL GASE
338 W. FIRST ST. POB 1350
PORT ANGELES, WA 98362
Phone 360 417 3376

Seaplane Base Operational Statistics

Aircraft operations: 20/year *
100% local general aviation
* for 12-month period ending 30 April 2022

Additional Remarks

PRKG OPTIONS INCL BEACH ADJ HOTEL OR SEAPLANE DOCKS IN MARINA.

Instrument Procedures

There are no published instrument procedures at W66.

Some nearby airports with instrument procedures:

KNOW - Port Angeles Coast Guard Air Station Airport (1 nm N)
KCLM - William R Fairchild International Airport (3 nm W)
0S9 - Jefferson County International Airport (24 nm E)
KFHR - Friday Harbor Airport (29 nm NE)
KOKH - AJ Eisenberg Airport (31 nm E)
 
Loc | Ops | Rwys | IFR | FBO | Links
Com | Nav | Svcs | Stats | Notes
Aerial photo
No photo
 
Airport distance calculator
Flying to Port Angeles Seaplane Base? Find the distance to fly.

From to W66

Sunrise and sunset
Times for 07-Aug-2022
 Local
(UTC-7)
 Zulu
(UTC)
Morning civil twilight05:2312:23
Sunrise05:5812:58
Sunset20:4003:40
Evening civil twilight21:1604:16

Current date and time
Zulu (UTC)  07-Aug-2022 19:52:37
Local (UTC-7)  07-Aug-2022 12:52:37
 
METAR
KCLM 
3nm W 
071853Z AUTO 10007KT 10SM CLR 26/12 A3009 RMK AO2 SLP187 T02560122
KNOW 
7nm W 
071935Z AUTO 00000KT 10SM CLR 21/13 A3007 RMK AO2 T02050133
CWQK 
11nm N 
071900Z AUTO 11006KT 20/ RMK AO1 SLP181 T0196 58005
CWPF 
18nm N 
071930Z AUTO 19005KT 17/13 RMK AO1 SLP178 T01730126 58008
CWLM 
18nm N 
071900Z AUTO 36005KT 26/13 RMK AO1 SLP181 T02640132 58005
CYWH 
18nm N 
071900Z 22003KT 15SM SKC 19/13 A3007 RMK SLP184 DENSITY ALT 300FT
TAF
KCLM 
3nm W 
071720Z 0718/0818 10004KT P6SM SKC FM080300 29004KT P6SM SKC
CYWH 
18nm N 
071410Z 0714/0802 VRB03KT P6SM SKC RMK NXT FCST BY 072100Z
NOTAMs
Click for the latest NOTAMs
NOTAMs are issued by the DoD/FAA and will open in a separate window not controlled by AirNav.

 

 
 

Would you like to see your business listed on this page?

 If your business provides an interesting product or service to pilots, flight crews, aircraft, or users of the Port Angeles Seaplane Base, you should consider listing it here.  To start the listing process, click on the button below
 
Add a business
 

Other Pages about Port Angeles Seaplane Base

Update a link
 
Copyright © AirNav, LLC. All rights reserved. Privacy Policy  Contact